sensor_id;sensor_type;location;lat;lon;timestamp;P1;durP1;ratioP1;P2;durP2;ratioP2
79526;SDS011;68974;47.754;-3.364;2023-07-09T00:00:14;13.75;;;3.95;;
79526;SDS011;68974;47.754;-3.364;2023-07-09T00:02:42;12.70;;;3.33;;
79526;SDS011;68974;47.754;-3.364;2023-07-09T00:05:10;15.98;;;3.58;;
79526;SDS011;68974;47.754;-3.364;2023-07-09T00:07:41;18.42;;;4.30;;
79526;SDS011;68974;47.754;-3.364;2023-07-09T00:10:15;17.90;;;3.85;;
79526;SDS011;68974;47.754;-3.364;2023-07-09T00:12:42;18.58;;;4.35;;
79526;SDS011;68974;47.754;-3.364;2023-07-09T00:15:08;15.30;;;3.00;;
79526;SDS011;68974;47.754;-3.364;2023-07-09T00:17:35;21.98;;;5.15;;
79526;SDS011;68974;47.754;-3.364;2023-07-09T00:20:01;22.17;;;4.93;;
79526;SDS011;68974;47.754;-3.364;2023-07-09T00:22:29;15.40;;;4.65;;
79526;SDS011;68974;47.754;-3.364;2023-07-09T00:24:55;21.92;;;4.82;;
79526;SDS011;68974;47.754;-3.364;2023-07-09T00:27:22;16.42;;;3.67;;
79526;SDS011;68974;47.754;-3.364;2023-07-09T00:29:51;19.80;;;4.60;;
79526;SDS011;68974;47.754;-3.364;2023-07-09T00:32:18;29.20;;;6.20;;
79526;SDS011;68974;47.754;-3.364;2023-07-09T00:34:47;23.25;;;4.45;;
79526;SDS011;68974;47.754;-3.364;2023-07-09T00:37:17;25.42;;;5.07;;
79526;SDS011;68974;47.754;-3.364;2023-07-09T00:39:45;19.65;;;5.15;;
79526;SDS011;68974;47.754;-3.364;2023-07-09T00:42:18;21.63;;;4.47;;
79526;SDS011;68974;47.754;-3.364;2023-07-09T00:44:45;26.85;;;5.53;;
79526;SDS011;68974;47.754;-3.364;2023-07-09T00:47:15;19.58;;;5.47;;
79526;SDS011;68974;47.754;-3.364;2023-07-09T00:49:43;29.05;;;5.90;;
79526;SDS011;68974;47.754;-3.364;2023-07-09T00:54:47;23.17;;;5.20;;
79526;SDS011;68974;47.754;-3.364;2023-07-09T00:57:16;20.85;;;4.97;;
79526;SDS011;68974;47.754;-3.364;2023-07-09T00:59:47;20.75;;;5.40;;
79526;SDS011;68974;47.754;-3.364;2023-07-09T01:02:16;24.00;;;5.25;;
79526;SDS011;68974;47.754;-3.364;2023-07-09T01:04:48;24.25;;;4.95;;
79526;SDS011;68974;47.754;-3.364;2023-07-09T01:07:14;21.38;;;4.82;;
79526;SDS011;68974;47.754;-3.364;2023-07-09T01:12:07;20.73;;;5.17;;
79526;SDS011;68974;47.754;-3.364;2023-07-09T01:14:34;24.98;;;5.07;;
79526;SDS011;68974;47.754;-3.364;2023-07-09T01:17:02;21.10;;;4.18;;
79526;SDS011;68974;47.754;-3.364;2023-07-09T01:19:30;29.92;;;5.93;;
79526;SDS011;68974;47.754;-3.364;2023-07-09T01:22:07;29.48;;;6.07;;
79526;SDS011;68974;47.754;-3.364;2023-07-09T01:27:35;25.77;;;6.30;;
79526;SDS011;68974;47.754;-3.364;2023-07-09T01:30:06;23.67;;;5.75;;
79526;SDS011;68974;47.754;-3.364;2023-07-09T01:32:39;23.42;;;5.38;;
79526;SDS011;68974;47.754;-3.364;2023-07-09T01:35:10;30.60;;;6.20;;
79526;SDS011;68974;47.754;-3.364;2023-07-09T01:37:37;21.48;;;5.15;;
79526;SDS011;68974;47.754;-3.364;2023-07-09T01:40:03;34.75;;;5.82;;
79526;SDS011;68974;47.754;-3.364;2023-07-09T01:42:30;31.02;;;5.72;;
79526;SDS011;68974;47.754;-3.364;2023-07-09T01:44:57;27.55;;;5.50;;
79526;SDS011;68974;47.754;-3.364;2023-07-09T01:47:23;27.15;;;5.60;;
79526;SDS011;68974;47.754;-3.364;2023-07-09T01:49:49;32.35;;;6.93;;
79526;SDS011;68974;47.754;-3.364;2023-07-09T01:52:15;31.90;;;6.07;;
79526;SDS011;68974;47.754;-3.364;2023-07-09T01:54:44;28.33;;;6.40;;
79526;SDS011;68974;47.754;-3.364;2023-07-09T01:59:40;35.95;;;6.22;;
79526;SDS011;68974;47.754;-3.364;2023-07-09T02:02:07;29.85;;;6.80;;
79526;SDS011;68974;47.754;-3.364;2023-07-09T02:04:44;33.92;;;6.72;;
79526;SDS011;68974;47.754;-3.364;2023-07-09T02:07:14;38.47;;;6.57;;
79526;SDS011;68974;47.754;-3.364;2023-07-09T02:09:39;32.38;;;7.07;;
79526;SDS011;68974;47.754;-3.364;2023-07-09T02:12:05;30.77;;;5.95;;
79526;SDS011;68974;47.754;-3.364;2023-07-09T02:14:31;28.88;;;6.95;;
79526;SDS011;68974;47.754;-3.364;2023-07-09T02:16:56;32.78;;;6.43;;
79526;SDS011;68974;47.754;-3.364;2023-07-09T02:19:22;31.25;;;6.00;;
79526;SDS011;68974;47.754;-3.364;2023-07-09T02:21:47;37.75;;;6.97;;
79526;SDS011;68974;47.754;-3.364;2023-07-09T02:24:12;28.58;;;6.10;;
79526;SDS011;68974;47.754;-3.364;2023-07-09T02:26:38;26.00;;;6.22;;
79526;SDS011;68974;47.754;-3.364;2023-07-09T02:29:03;28.02;;;5.47;;
79526;SDS011;68974;47.754;-3.364;2023-07-09T02:31:28;28.88;;;5.80;;
79526;SDS011;68974;47.754;-3.364;2023-07-09T02:33:55;29.00;;;5.75;;
79526;SDS011;68974;47.754;-3.364;2023-07-09T02:36:21;26.23;;;6.15;;
79526;SDS011;68974;47.754;-3.364;2023-07-09T02:38:47;27.73;;;6.50;;
79526;SDS011;68974;47.754;-3.364;2023-07-09T02:41:12;30.07;;;5.63;;
79526;SDS011;68974;47.754;-3.364;2023-07-09T02:43:37;24.95;;;6.00;;
79526;SDS011;68974;47.754;-3.364;2023-07-09T02:46:03;29.10;;;5.60;;
79526;SDS011;68974;47.754;-3.364;2023-07-09T02:48:28;35.97;;;6.43;;
79526;SDS011;68974;47.754;-3.364;2023-07-09T02:50:54;24.10;;;4.97;;
79526;SDS011;68974;47.754;-3.364;2023-07-09T02:53:19;28.58;;;6.00;;
79526;SDS011;68974;47.754;-3.364;2023-07-09T02:55:45;31.10;;;5.57;;
79526;SDS011;68974;47.754;-3.364;2023-07-09T02:58:10;33.53;;;6.55;;
79526;SDS011;68974;47.754;-3.364;2023-07-09T03:00:35;30.43;;;5.10;;
79526;SDS011;68974;47.754;-3.364;2023-07-09T03:03:01;27.23;;;5.20;;
79526;SDS011;68974;47.754;-3.364;2023-07-09T03:05:27;24.92;;;5.47;;
79526;SDS011;68974;47.754;-3.364;2023-07-09T03:07:52;23.03;;;6.30;;
79526;SDS011;68974;47.754;-3.364;2023-07-09T03:10:17;27.75;;;4.25;;
79526;SDS011;68974;47.754;-3.364;2023-07-09T03:12:43;23.13;;;5.13;;
79526;SDS011;68974;47.754;-3.364;2023-07-09T03:15:09;24.25;;;5.15;;
79526;SDS011;68974;47.754;-3.364;2023-07-09T03:17:34;18.60;;;5.80;;
79526;SDS011;68974;47.754;-3.364;2023-07-09T03:20:00;19.13;;;4.07;;
79526;SDS011;68974;47.754;-3.364;2023-07-09T03:22:25;26.05;;;4.40;;
79526;SDS011;68974;47.754;-3.364;2023-07-09T03:24:50;18.58;;;4.07;;
79526;SDS011;68974;47.754;-3.364;2023-07-09T03:27:16;18.67;;;4.03;;
79526;SDS011;68974;47.754;-3.364;2023-07-09T03:29:41;19.20;;;4.10;;
79526;SDS011;68974;47.754;-3.364;2023-07-09T03:32:07;20.25;;;3.95;;
79526;SDS011;68974;47.754;-3.364;2023-07-09T03:34:32;17.20;;;3.65;;
79526;SDS011;68974;47.754;-3.364;2023-07-09T03:36:57;13.30;;;4.30;;
79526;SDS011;68974;47.754;-3.364;2023-07-09T03:39:23;22.00;;;5.80;;
79526;SDS011;68974;47.754;-3.364;2023-07-09T03:41:48;19.23;;;5.80;;
79526;SDS011;68974;47.754;-3.364;2023-07-09T03:44:13;12.53;;;4.57;;
79526;SDS011;68974;47.754;-3.364;2023-07-09T03:46:39;13.38;;;4.15;;
79526;SDS011;68974;47.754;-3.364;2023-07-09T03:49:04;14.93;;;3.63;;
79526;SDS011;68974;47.754;-3.364;2023-07-09T03:51:30;15.55;;;4.38;;
79526;SDS011;68974;47.754;-3.364;2023-07-09T03:53:55;15.43;;;4.03;;
79526;SDS011;68974;47.754;-3.364;2023-07-09T03:56:20;11.18;;;3.08;;
79526;SDS011;68974;47.754;-3.364;2023-07-09T03:58:46;13.90;;;3.03;;
79526;SDS011;68974;47.754;-3.364;2023-07-09T04:01:11;8.43;;;1.90;;
79526;SDS011;68974;47.754;-3.364;2023-07-09T04:03:37;11.32;;;2.10;;
79526;SDS011;68974;47.754;-3.364;2023-07-09T04:06:02;8.73;;;1.90;;
79526;SDS011;68974;47.754;-3.364;2023-07-09T04:08:28;6.85;;;2.05;;
79526;SDS011;68974;47.754;-3.364;2023-07-09T04:10:53;8.13;;;1.67;;
79526;SDS011;68974;47.754;-3.364;2023-07-09T04:13:21;7.68;;;1.60;;
79526;SDS011;68974;47.754;-3.364;2023-07-09T04:15:47;7.68;;;1.50;;
79526;SDS011;68974;47.754;-3.364;2023-07-09T04:18:12;5.95;;;1.67;;
79526;SDS011;68974;47.754;-3.364;2023-07-09T04:20:38;12.65;;;2.10;;
79526;SDS011;68974;47.754;-3.364;2023-07-09T04:23:03;12.18;;;1.70;;
79526;SDS011;68974;47.754;-3.364;2023-07-09T04:27:55;12.57;;;1.97;;
79526;SDS011;68974;47.754;-3.364;2023-07-09T04:30:21;7.28;;;2.03;;
79526;SDS011;68974;47.754;-3.364;2023-07-09T04:32:46;8.43;;;2.50;;
79526;SDS011;68974;47.754;-3.364;2023-07-09T04:35:12;7.00;;;1.98;;
79526;SDS011;68974;47.754;-3.364;2023-07-09T04:37:39;5.93;;;1.65;;
79526;SDS011;68974;47.754;-3.364;2023-07-09T04:40:06;11.15;;;2.72;;
79526;SDS011;68974;47.754;-3.364;2023-07-09T04:42:35;10.18;;;2.08;;
79526;SDS011;68974;47.754;-3.364;2023-07-09T04:45:02;10.25;;;2.75;;
79526;SDS011;68974;47.754;-3.364;2023-07-09T04:47:28;6.93;;;1.77;;
79526;SDS011;68974;47.754;-3.364;2023-07-09T04:49:53;9.43;;;1.70;;
79526;SDS011;68974;47.754;-3.364;2023-07-09T04:52:20;10.02;;;1.65;;
79526;SDS011;68974;47.754;-3.364;2023-07-09T04:54:47;13.45;;;2.60;;
79526;SDS011;68974;47.754;-3.364;2023-07-09T04:57:12;12.23;;;2.40;;
79526;SDS011;68974;47.754;-3.364;2023-07-09T04:59:38;10.00;;;2.15;;
79526;SDS011;68974;47.754;-3.364;2023-07-09T05:02:03;11.88;;;2.38;;
79526;SDS011;68974;47.754;-3.364;2023-07-09T05:04:30;13.90;;;2.45;;
79526;SDS011;68974;47.754;-3.364;2023-07-09T05:06:56;14.90;;;2.88;;
79526;SDS011;68974;47.754;-3.364;2023-07-09T05:09:22;7.90;;;1.85;;
79526;SDS011;68974;47.754;-3.364;2023-07-09T05:11:48;15.38;;;2.35;;
79526;SDS011;68974;47.754;-3.364;2023-07-09T05:14:14;7.00;;;1.83;;
79526;SDS011;68974;47.754;-3.364;2023-07-09T05:16:40;6.95;;;1.90;;
79526;SDS011;68974;47.754;-3.364;2023-07-09T05:19:06;7.72;;;1.52;;
79526;SDS011;68974;47.754;-3.364;2023-07-09T05:21:32;6.18;;;1.70;;
79526;SDS011;68974;47.754;-3.364;2023-07-09T05:23:58;7.05;;;1.98;;
79526;SDS011;68974;47.754;-3.364;2023-07-09T05:26:23;11.10;;;2.43;;
79526;SDS011;68974;47.754;-3.364;2023-07-09T05:28:48;12.02;;;2.53;;
79526;SDS011;68974;47.754;-3.364;2023-07-09T05:31:14;16.73;;;2.13;;
79526;SDS011;68974;47.754;-3.364;2023-07-09T05:33:40;9.15;;;1.63;;
79526;SDS011;68974;47.754;-3.364;2023-07-09T05:36:05;10.13;;;1.70;;
79526;SDS011;68974;47.754;-3.364;2023-07-09T05:38:32;11.35;;;2.65;;
79526;SDS011;68974;47.754;-3.364;2023-07-09T05:41:01;7.55;;;2.15;;
79526;SDS011;68974;47.754;-3.364;2023-07-09T05:43:28;11.25;;;2.00;;
79526;SDS011;68974;47.754;-3.364;2023-07-09T05:45:54;8.07;;;1.67;;
79526;SDS011;68974;47.754;-3.364;2023-07-09T05:48:20;10.07;;;1.90;;
79526;SDS011;68974;47.754;-3.364;2023-07-09T05:50:45;10.35;;;2.08;;
79526;SDS011;68974;47.754;-3.364;2023-07-09T05:53:13;12.73;;;2.70;;
79526;SDS011;68974;47.754;-3.364;2023-07-09T05:55:39;15.45;;;2.60;;
79526;SDS011;68974;47.754;-3.364;2023-07-09T05:58:04;13.07;;;2.17;;
79526;SDS011;68974;47.754;-3.364;2023-07-09T06:00:30;12.23;;;3.15;;
79526;SDS011;68974;47.754;-3.364;2023-07-09T06:02:55;11.82;;;2.38;;
79526;SDS011;68974;47.754;-3.364;2023-07-09T06:05:21;11.02;;;2.25;;
79526;SDS011;68974;47.754;-3.364;2023-07-09T06:07:46;13.60;;;2.42;;
79526;SDS011;68974;47.754;-3.364;2023-07-09T06:10:12;4.03;;;1.70;;
79526;SDS011;68974;47.754;-3.364;2023-07-09T06:12:38;13.10;;;2.10;;
79526;SDS011;68974;47.754;-3.364;2023-07-09T06:15:05;8.02;;;1.67;;
79526;SDS011;68974;47.754;-3.364;2023-07-09T06:17:31;11.23;;;2.50;;
79526;SDS011;68974;47.754;-3.364;2023-07-09T06:19:56;10.70;;;2.10;;
79526;SDS011;68974;47.754;-3.364;2023-07-09T06:22:22;9.37;;;2.27;;
79526;SDS011;68974;47.754;-3.364;2023-07-09T06:24:47;11.80;;;2.50;;
79526;SDS011;68974;47.754;-3.364;2023-07-09T06:27:12;10.80;;;2.13;;
79526;SDS011;68974;47.754;-3.364;2023-07-09T06:29:38;11.73;;;2.95;;
79526;SDS011;68974;47.754;-3.364;2023-07-09T06:32:03;10.23;;;2.30;;
79526;SDS011;68974;47.754;-3.364;2023-07-09T06:34:30;9.30;;;1.98;;
79526;SDS011;68974;47.754;-3.364;2023-07-09T06:36:56;8.77;;;2.08;;
79526;SDS011;68974;47.754;-3.364;2023-07-09T06:39:21;7.10;;;2.60;;
79526;SDS011;68974;47.754;-3.364;2023-07-09T06:41:46;9.90;;;1.73;;
79526;SDS011;68974;47.754;-3.364;2023-07-09T06:44:12;12.57;;;3.40;;
79526;SDS011;68974;47.754;-3.364;2023-07-09T06:46:38;11.38;;;2.55;;
79526;SDS011;68974;47.754;-3.364;2023-07-09T06:49:04;11.20;;;2.33;;
79526;SDS011;68974;47.754;-3.364;2023-07-09T06:51:32;7.90;;;2.15;;
79526;SDS011;68974;47.754;-3.364;2023-07-09T06:53:58;7.82;;;2.00;;
79526;SDS011;68974;47.754;-3.364;2023-07-09T06:56:23;9.38;;;2.10;;
79526;SDS011;68974;47.754;-3.364;2023-07-09T06:58:49;9.57;;;2.08;;
79526;SDS011;68974;47.754;-3.364;2023-07-09T07:01:14;9.32;;;2.58;;
79526;SDS011;68974;47.754;-3.364;2023-07-09T07:03:40;8.82;;;2.03;;
79526;SDS011;68974;47.754;-3.364;2023-07-09T07:06:05;10.65;;;2.05;;
79526;SDS011;68974;47.754;-3.364;2023-07-09T07:08:32;9.63;;;2.00;;
79526;SDS011;68974;47.754;-3.364;2023-07-09T07:10:59;13.57;;;2.20;;
79526;SDS011;68974;47.754;-3.364;2023-07-09T07:13:32;12.40;;;2.75;;
79526;SDS011;68974;47.754;-3.364;2023-07-09T07:16:00;8.40;;;1.80;;
79526;SDS011;68974;47.754;-3.364;2023-07-09T07:18:27;14.60;;;2.97;;
79526;SDS011;68974;47.754;-3.364;2023-07-09T07:20:52;10.20;;;1.65;;
79526;SDS011;68974;47.754;-3.364;2023-07-09T07:23:18;15.25;;;2.22;;
79526;SDS011;68974;47.754;-3.364;2023-07-09T07:25:45;8.73;;;2.80;;
79526;SDS011;68974;47.754;-3.364;2023-07-09T07:28:11;12.45;;;2.60;;
79526;SDS011;68974;47.754;-3.364;2023-07-09T07:30:36;8.85;;;2.25;;
79526;SDS011;68974;47.754;-3.364;2023-07-09T07:33:02;10.90;;;2.13;;
79526;SDS011;68974;47.754;-3.364;2023-07-09T07:35:27;7.75;;;2.17;;
79526;SDS011;68974;47.754;-3.364;2023-07-09T07:37:53;8.10;;;2.13;;
79526;SDS011;68974;47.754;-3.364;2023-07-09T07:40:18;9.25;;;2.03;;
79526;SDS011;68974;47.754;-3.364;2023-07-09T07:42:44;16.90;;;2.33;;
79526;SDS011;68974;47.754;-3.364;2023-07-09T07:45:09;7.82;;;1.50;;
79526;SDS011;68974;47.754;-3.364;2023-07-09T07:47:35;8.95;;;2.58;;
79526;SDS011;68974;47.754;-3.364;2023-07-09T07:50:00;10.90;;;1.98;;
79526;SDS011;68974;47.754;-3.364;2023-07-09T07:52:26;7.45;;;2.38;;
79526;SDS011;68974;47.754;-3.364;2023-07-09T07:54:52;13.90;;;3.08;;
79526;SDS011;68974;47.754;-3.364;2023-07-09T07:57:18;11.75;;;2.67;;
79526;SDS011;68974;47.754;-3.364;2023-07-09T07:59:43;15.05;;;2.25;;
79526;SDS011;68974;47.754;-3.364;2023-07-09T08:02:12;10.60;;;2.25;;
79526;SDS011;68974;47.754;-3.364;2023-07-09T08:04:39;12.50;;;2.10;;
79526;SDS011;68974;47.754;-3.364;2023-07-09T08:07:06;10.52;;;1.95;;
79526;SDS011;68974;47.754;-3.364;2023-07-09T08:09:33;14.57;;;2.35;;
79526;SDS011;68974;47.754;-3.364;2023-07-09T08:11:59;15.88;;;2.30;;
79526;SDS011;68974;47.754;-3.364;2023-07-09T08:14:25;12.57;;;2.13;;
79526;SDS011;68974;47.754;-3.364;2023-07-09T08:16:50;9.23;;;2.08;;
79526;SDS011;68974;47.754;-3.364;2023-07-09T08:19:18;11.18;;;2.00;;
79526;SDS011;68974;47.754;-3.364;2023-07-09T08:21:44;9.70;;;2.25;;
79526;SDS011;68974;47.754;-3.364;2023-07-09T08:24:10;11.15;;;2.72;;
79526;SDS011;68974;47.754;-3.364;2023-07-09T08:26:36;9.90;;;2.15;;
79526;SDS011;68974;47.754;-3.364;2023-07-09T08:29:03;9.05;;;2.10;;
79526;SDS011;68974;47.754;-3.364;2023-07-09T08:31:28;11.02;;;2.67;;
79526;SDS011;68974;47.754;-3.364;2023-07-09T08:33:54;12.73;;;2.25;;
79526;SDS011;68974;47.754;-3.364;2023-07-09T08:36:19;10.18;;;1.98;;
79526;SDS011;68974;47.754;-3.364;2023-07-09T08:38:44;11.73;;;1.92;;
79526;SDS011;68974;47.754;-3.364;2023-07-09T08:41:20;9.10;;;1.73;;
79526;SDS011;68974;47.754;-3.364;2023-07-09T08:43:58;11.10;;;2.47;;
79526;SDS011;68974;47.754;-3.364;2023-07-09T08:49:50;11.10;;;2.60;;
79526;SDS011;68974;47.754;-3.364;2023-07-09T08:55:23;12.70;;;2.20;;
79526;SDS011;68974;47.754;-3.364;2023-07-09T08:57:54;10.77;;;2.33;;
79526;SDS011;68974;47.754;-3.364;2023-07-09T09:00:28;10.80;;;2.75;;
79526;SDS011;68974;47.754;-3.364;2023-07-09T09:02:59;8.70;;;2.28;;
79526;SDS011;68974;47.754;-3.364;2023-07-09T09:05:54;9.85;;;2.03;;
79526;SDS011;68974;47.754;-3.364;2023-07-09T09:13:51;6.45;;;1.77;;
79526;SDS011;68974;47.754;-3.364;2023-07-09T09:16:22;13.27;;;2.63;;
79526;SDS011;68974;47.754;-3.364;2023-07-09T09:18:55;8.65;;;2.33;;
79526;SDS011;68974;47.754;-3.364;2023-07-09T09:21:36;10.23;;;2.22;;
79526;SDS011;68974;47.754;-3.364;2023-07-09T09:24:36;12.25;;;2.80;;
79526;SDS011;68974;47.754;-3.364;2023-07-09T09:29:45;6.60;;;1.87;;
79526;SDS011;68974;47.754;-3.364;2023-07-09T09:32:18;8.23;;;2.10;;
79526;SDS011;68974;47.754;-3.364;2023-07-09T09:34:49;11.13;;;2.00;;
79526;SDS011;68974;47.754;-3.364;2023-07-09T09:37:22;11.55;;;2.65;;
79526;SDS011;68974;47.754;-3.364;2023-07-09T09:39:56;9.18;;;2.47;;
79526;SDS011;68974;47.754;-3.364;2023-07-09T09:42:23;14.73;;;2.50;;
79526;SDS011;68974;47.754;-3.364;2023-07-09T09:44:50;17.27;;;3.00;;
79526;SDS011;68974;47.754;-3.364;2023-07-09T09:47:19;13.65;;;2.40;;
79526;SDS011;68974;47.754;-3.364;2023-07-09T09:49:45;8.40;;;2.08;;
79526;SDS011;68974;47.754;-3.364;2023-07-09T09:52:15;15.90;;;2.42;;
79526;SDS011;68974;47.754;-3.364;2023-07-09T09:54:51;10.57;;;1.70;;
79526;SDS011;68974;47.754;-3.364;2023-07-09T09:57:19;12.57;;;2.05;;
79526;SDS011;68974;47.754;-3.364;2023-07-09T09:59:47;10.18;;;2.08;;
79526;SDS011;68974;47.754;-3.364;2023-07-09T10:02:20;14.88;;;2.72;;
79526;SDS011;68974;47.754;-3.364;2023-07-09T10:04:47;8.32;;;2.20;;
79526;SDS011;68974;47.754;-3.364;2023-07-09T10:10:08;10.27;;;2.03;;
79526;SDS011;68974;47.754;-3.364;2023-07-09T10:12:40;12.23;;;2.38;;
79526;SDS011;68974;47.754;-3.364;2023-07-09T10:15:17;11.40;;;3.10;;
79526;SDS011;68974;47.754;-3.364;2023-07-09T10:17:53;9.98;;;2.58;;
79526;SDS011;68974;47.754;-3.364;2023-07-09T10:25:43;11.88;;;2.30;;
79526;SDS011;68974;47.754;-3.364;2023-07-09T10:32:10;9.48;;;2.05;;
79526;SDS011;68974;47.754;-3.364;2023-07-09T10:37:08;10.40;;;3.78;;
79526;SDS011;68974;47.754;-3.364;2023-07-09T10:39:46;11.35;;;2.50;;
79526;SDS011;68974;47.754;-3.364;2023-07-09T10:42:18;11.10;;;2.55;;
79526;SDS011;68974;47.754;-3.364;2023-07-09T10:44:52;14.10;;;2.95;;
79526;SDS011;68974;47.754;-3.364;2023-07-09T10:47:28;12.00;;;2.50;;
79526;SDS011;68974;47.754;-3.364;2023-07-09T10:49:57;9.32;;;2.47;;
79526;SDS011;68974;47.754;-3.364;2023-07-09T11:00:17;12.85;;;2.17;;
79526;SDS011;68974;47.754;-3.364;2023-07-09T11:02:44;10.70;;;2.33;;
79526;SDS011;68974;47.754;-3.364;2023-07-09T11:05:12;10.88;;;3.05;;
79526;SDS011;68974;47.754;-3.364;2023-07-09T11:10:13;7.03;;;2.28;;
79526;SDS011;68974;47.754;-3.364;2023-07-09T11:12:48;11.38;;;2.13;;
79526;SDS011;68974;47.754;-3.364;2023-07-09T11:15:30;8.88;;;1.63;;
79526;SDS011;68974;47.754;-3.364;2023-07-09T11:18:06;10.88;;;3.60;;
79526;SDS011;68974;47.754;-3.364;2023-07-09T11:20:36;13.18;;;2.90;;
79526;SDS011;68974;47.754;-3.364;2023-07-09T11:23:17;10.25;;;2.60;;
79526;SDS011;68974;47.754;-3.364;2023-07-09T11:25:46;12.82;;;2.00;;
79526;SDS011;68974;47.754;-3.364;2023-07-09T11:28:13;12.45;;;2.30;;
79526;SDS011;68974;47.754;-3.364;2023-07-09T11:30:49;7.38;;;2.03;;
79526;SDS011;68974;47.754;-3.364;2023-07-09T11:33:26;10.10;;;2.17;;
79526;SDS011;68974;47.754;-3.364;2023-07-09T11:35:54;11.23;;;2.33;;
79526;SDS011;68974;47.754;-3.364;2023-07-09T11:38:39;7.95;;;1.75;;
79526;SDS011;68974;47.754;-3.364;2023-07-09T11:41:25;9.68;;;1.92;;
79526;SDS011;68974;47.754;-3.364;2023-07-09T11:43:50;8.73;;;3.05;;
79526;SDS011;68974;47.754;-3.364;2023-07-09T11:46:24;10.75;;;2.33;;
79526;SDS011;68974;47.754;-3.364;2023-07-09T11:48:51;13.73;;;2.28;;
79526;SDS011;68974;47.754;-3.364;2023-07-09T11:54:07;8.85;;;1.95;;
79526;SDS011;68974;47.754;-3.364;2023-07-09T11:56:37;11.02;;;2.10;;
79526;SDS011;68974;47.754;-3.364;2023-07-09T11:59:03;9.75;;;2.42;;
79526;SDS011;68974;47.754;-3.364;2023-07-09T12:01:34;9.00;;;1.65;;
79526;SDS011;68974;47.754;-3.364;2023-07-09T12:04:09;9.27;;;1.85;;
79526;SDS011;68974;47.754;-3.364;2023-07-09T12:06:38;11.13;;;2.15;;
79526;SDS011;68974;47.754;-3.364;2023-07-09T12:09:05;11.55;;;1.88;;
79526;SDS011;68974;47.754;-3.364;2023-07-09T12:11:32;11.35;;;2.33;;
79526;SDS011;68974;47.754;-3.364;2023-07-09T12:14:05;10.50;;;2.42;;
79526;SDS011;68974;47.754;-3.364;2023-07-09T12:16:36;7.93;;;1.90;;
79526;SDS011;68974;47.754;-3.364;2023-07-09T12:19:06;11.55;;;2.35;;
79526;SDS011;68974;47.754;-3.364;2023-07-09T12:21:37;8.52;;;1.80;;
79526;SDS011;68974;47.754;-3.364;2023-07-09T12:24:03;10.00;;;2.38;;
79526;SDS011;68974;47.754;-3.364;2023-07-09T12:26:42;9.82;;;2.40;;
79526;SDS011;68974;47.754;-3.364;2023-07-09T12:29:08;9.27;;;1.95;;
79526;SDS011;68974;47.754;-3.364;2023-07-09T12:31:35;6.22;;;2.08;;
79526;SDS011;68974;47.754;-3.364;2023-07-09T12:34:00;10.13;;;2.80;;
79526;SDS011;68974;47.754;-3.364;2023-07-09T12:36:26;8.27;;;1.80;;
79526;SDS011;68974;47.754;-3.364;2023-07-09T12:38:56;5.28;;;1.65;;
79526;SDS011;68974;47.754;-3.364;2023-07-09T12:41:40;8.45;;;1.63;;
79526;SDS011;68974;47.754;-3.364;2023-07-09T12:44:20;5.78;;;1.70;;
79526;SDS011;68974;47.754;-3.364;2023-07-09T12:46:50;10.82;;;2.20;;
79526;SDS011;68974;47.754;-3.364;2023-07-09T12:49:20;7.35;;;1.60;;
79526;SDS011;68974;47.754;-3.364;2023-07-09T12:51:50;8.43;;;1.67;;
79526;SDS011;68974;47.754;-3.364;2023-07-09T12:54:17;8.93;;;2.05;;
79526;SDS011;68974;47.754;-3.364;2023-07-09T12:56:44;10.40;;;1.80;;
79526;SDS011;68974;47.754;-3.364;2023-07-09T12:59:24;8.48;;;2.05;;
79526;SDS011;68974;47.754;-3.364;2023-07-09T13:02:07;10.75;;;2.38;;
79526;SDS011;68974;47.754;-3.364;2023-07-09T13:04:36;16.13;;;2.75;;
79526;SDS011;68974;47.754;-3.364;2023-07-09T13:07:03;11.02;;;2.00;;
79526;SDS011;68974;47.754;-3.364;2023-07-09T13:09:29;8.80;;;2.45;;
79526;SDS011;68974;47.754;-3.364;2023-07-09T13:11:55;6.85;;;1.92;;
79526;SDS011;68974;47.754;-3.364;2023-07-09T13:14:30;9.40;;;1.80;;
79526;SDS011;68974;47.754;-3.364;2023-07-09T13:17:06;9.55;;;1.95;;
79526;SDS011;68974;47.754;-3.364;2023-07-09T13:19:32;10.05;;;1.98;;
79526;SDS011;68974;47.754;-3.364;2023-07-09T13:21:58;7.22;;;1.90;;
79526;SDS011;68974;47.754;-3.364;2023-07-09T13:24:24;12.98;;;1.80;;
79526;SDS011;68974;47.754;-3.364;2023-07-09T13:26:52;12.13;;;1.98;;
79526;SDS011;68974;47.754;-3.364;2023-07-09T13:29:18;8.05;;;1.60;;
79526;SDS011;68974;47.754;-3.364;2023-07-09T13:34:21;8.30;;;1.75;;
79526;SDS011;68974;47.754;-3.364;2023-07-09T13:36:51;5.68;;;1.55;;
79526;SDS011;68974;47.754;-3.364;2023-07-09T13:39:19;8.90;;;1.80;;
79526;SDS011;68974;47.754;-3.364;2023-07-09T13:44:19;10.13;;;1.95;;
79526;SDS011;68974;47.754;-3.364;2023-07-09T13:46:47;10.35;;;1.73;;
79526;SDS011;68974;47.754;-3.364;2023-07-09T13:49:13;6.15;;;1.25;;
79526;SDS011;68974;47.754;-3.364;2023-07-09T13:51:40;11.15;;;2.00;;
79526;SDS011;68974;47.754;-3.364;2023-07-09T13:54:40;5.95;;;1.38;;
79526;SDS011;68974;47.754;-3.364;2023-07-09T13:57:03;31.02;;;4.68;;
79526;SDS011;68974;47.754;-3.364;2023-07-09T13:59:30;8.27;;;2.22;;
79526;SDS011;68974;47.754;-3.364;2023-07-09T14:01:56;9.07;;;2.38;;
79526;SDS011;68974;47.754;-3.364;2023-07-09T14:06:49;11.63;;;2.25;;
79526;SDS011;68974;47.754;-3.364;2023-07-09T14:09:15;7.60;;;1.90;;
79526;SDS011;68974;47.754;-3.364;2023-07-09T14:11:43;9.63;;;1.90;;
79526;SDS011;68974;47.754;-3.364;2023-07-09T14:14:19;6.57;;;1.92;;
79526;SDS011;68974;47.754;-3.364;2023-07-09T14:16:49;6.78;;;1.95;;
79526;SDS011;68974;47.754;-3.364;2023-07-09T14:19:16;6.18;;;2.03;;
79526;SDS011;68974;47.754;-3.364;2023-07-09T14:21:43;19.83;;;9.48;;
79526;SDS011;68974;47.754;-3.364;2023-07-09T14:26:48;5.97;;;1.48;;
79526;SDS011;68974;47.754;-3.364;2023-07-09T14:29:14;9.45;;;2.75;;
79526;SDS011;68974;47.754;-3.364;2023-07-09T14:31:40;7.13;;;2.55;;
79526;SDS011;68974;47.754;-3.364;2023-07-09T14:36:54;7.57;;;2.50;;
79526;SDS011;68974;47.754;-3.364;2023-07-09T14:39:22;9.05;;;2.17;;
79526;SDS011;68974;47.754;-3.364;2023-07-09T14:41:48;11.57;;;2.67;;
79526;SDS011;68974;47.754;-3.364;2023-07-09T14:46:54;8.30;;;2.05;;
79526;SDS011;68974;47.754;-3.364;2023-07-09T14:49:20;9.70;;;3.63;;
79526;SDS011;68974;47.754;-3.364;2023-07-09T14:51:47;7.72;;;1.90;;
79526;SDS011;68974;47.754;-3.364;2023-07-09T14:54:21;13.38;;;2.38;;
79526;SDS011;68974;47.754;-3.364;2023-07-09T14:56:49;8.25;;;2.53;;
79526;SDS011;68974;47.754;-3.364;2023-07-09T14:59:15;14.25;;;5.00;;
79526;SDS011;68974;47.754;-3.364;2023-07-09T15:01:41;9.52;;;2.40;;
79526;SDS011;68974;47.754;-3.364;2023-07-09T15:06:50;8.80;;;2.35;;
79526;SDS011;68974;47.754;-3.364;2023-07-09T15:09:22;6.15;;;2.58;;
79526;SDS011;68974;47.754;-3.364;2023-07-09T15:11:53;8.63;;;2.17;;
79526;SDS011;68974;47.754;-3.364;2023-07-09T15:14:25;8.23;;;2.58;;
79526;SDS011;68974;47.754;-3.364;2023-07-09T15:19:19;13.32;;;2.53;;
79526;SDS011;68974;47.754;-3.364;2023-07-09T15:21:46;7.40;;;2.95;;
79526;SDS011;68974;47.754;-3.364;2023-07-09T15:26:48;9.52;;;3.20;;
79526;SDS011;68974;47.754;-3.364;2023-07-09T15:29:21;7.85;;;2.38;;
79526;SDS011;68974;47.754;-3.364;2023-07-09T15:31:47;7.93;;;1.88;;
79526;SDS011;68974;47.754;-3.364;2023-07-09T15:34:13;10.43;;;2.50;;
79526;SDS011;68974;47.754;-3.364;2023-07-09T15:36:40;10.68;;;2.67;;
79526;SDS011;68974;47.754;-3.364;2023-07-09T15:39:09;8.75;;;1.80;;
79526;SDS011;68974;47.754;-3.364;2023-07-09T15:41:35;38.47;;;12.80;;
79526;SDS011;68974;47.754;-3.364;2023-07-09T15:44:00;8.65;;;2.47;;
79526;SDS011;68974;47.754;-3.364;2023-07-09T15:46:26;11.38;;;2.05;;
79526;SDS011;68974;47.754;-3.364;2023-07-09T15:48:51;10.93;;;2.13;;